HTDA/DAR METAR and TAF weather

Enter ICAO airport designator
Station Type Date Time Source
HTDA METAR 2024/06/13 23:00 UTC NOAA

HTDA 132300Z 23004KT 9999 FEW013 21/18 Q1017 NOSIG


Station Type Date Time Source
HTDA Decoded METAR 2024/06/13 23:00 UTC NOAA

Dar Es Salaam Airport, Tanzania (HTDA) 06-52S 039-12E 55M
Jun 13, 2024 - 07:00 PM EDT / 2024.06.13 2300 UTC
Wind: from the SW (230 degrees) at 5 MPH (4 KT):0
Visibility: greater than 7 mile(s):0
Sky conditions: mostly clear
Temperature: 69 F (21 C)
Dew Point: 64 F (18 C)
Relative Humidity: 82%
Pressure (altimeter): 30.03 in. Hg (1017 hPa)
ob: HTDA 132300Z 23004KT 9999 FEW013 21/18 Q1017 NOSIG
cycle: 23

Station Type Date Time Source
HTDA TAF 2024/06/13 12:30 UTC NOAA